createdAt,value
2022-08-21T00:01:21.617Z,97817.03
2022-08-21T00:06:24.858Z,97805.06
2022-08-21T00:11:28.035Z,97806.75
2022-08-21T00:16:29.719Z,97814.06
2022-08-21T00:21:31.390Z,97810.50
2022-08-21T00:26:33.125Z,97806.47
2022-08-21T00:31:34.893Z,97808.91
2022-08-21T00:36:37.108Z,97802.75
2022-08-21T00:41:39.866Z,97802.59
2022-08-21T00:46:42.358Z,97809.19
2022-08-21T00:51:51.581Z,97797.47
2022-08-21T00:56:57.983Z,97795.38
2022-08-21T01:02:01.876Z,97796.28
2022-08-21T01:07:04.332Z,97799.38
2022-08-21T01:12:06.404Z,97798.38
2022-08-21T01:17:09.247Z,97793.84
2022-08-21T01:22:11.009Z,97792.50
2022-08-21T01:27:12.834Z,97793.94
2022-08-21T01:32:18.366Z,97794.63
2022-08-21T01:37:22.371Z,97785.19
2022-08-21T01:42:24.334Z,97788.09
2022-08-21T01:47:26.252Z,97789.75
2022-08-21T01:52:28.066Z,97795.41
2022-08-21T01:57:29.832Z,97792.38
2022-08-21T02:02:31.471Z,97791.28
2022-08-21T02:07:55.352Z,97791.75
2022-08-21T02:12:58.286Z,97794.31
2022-08-21T02:18:02.838Z,97787.56
2022-08-21T02:23:06.101Z,97784.34
2022-08-21T02:28:11.668Z,97780.28
2022-08-21T02:33:14.116Z,97779.84
2022-08-21T02:38:19.261Z,97780.47
2022-08-21T02:43:23.659Z,97775.59
2022-08-21T02:48:29.379Z,97783.88
2022-08-21T02:53:32.500Z,97781.31
2022-08-21T02:58:39.436Z,97782.75
2022-08-21T03:03:44.881Z,97778.72
2022-08-21T03:08:46.876Z,97779.97
2022-08-21T03:13:48.503Z,97775.53
2022-08-21T03:18:50.200Z,97778.22
2022-08-21T03:23:51.937Z,97773.63
2022-08-21T03:28:53.882Z,97774.41
2022-08-21T03:33:56.553Z,97788.75
2022-08-21T03:38:58.227Z,97792.38
2022-08-21T03:44:00.196Z,97793.50
2022-08-21T03:49:01.917Z,97790.47
2022-08-21T03:54:04.130Z,97788.19
2022-08-21T03:59:06.486Z,97799.97
2022-08-21T04:04:08.105Z,97794.53
2022-08-21T04:09:09.745Z,97799.88
2022-08-21T04:14:11.372Z,97796.69
2022-08-21T04:19:16.998Z,97809.00
2022-08-21T04:24:18.668Z,97809.75
2022-08-21T04:29:20.866Z,97813.19
2022-08-21T04:34:22.561Z,97819.38
2022-08-21T04:39:25.226Z,97818.50
2022-08-21T04:44:32.024Z,97818.25
2022-08-21T04:49:34.115Z,97828.34
2022-08-21T04:54:36.112Z,97839.59
2022-08-21T04:59:44.114Z,97836.31
2022-08-21T05:04:54.537Z,97835.66
2022-08-21T05:09:56.231Z,97838.00
2022-08-21T05:14:57.830Z,97839.31
2022-08-21T05:19:59.475Z,97837.75
2022-08-21T05:25:01.097Z,97841.03
2022-08-21T05:30:04.337Z,97849.41
2022-08-21T05:35:07.804Z,97843.84
2022-08-21T05:40:21.906Z,97848.28
2022-08-21T05:45:41.521Z,97847.97
2022-08-21T05:50:48.001Z,97846.53
2022-08-21T05:55:49.848Z,97848.84
2022-08-21T06:00:53.786Z,97846.81
2022-08-21T06:05:56.624Z,97840.66
2022-08-21T06:11:00.689Z,97848.25
2022-08-21T06:16:15.731Z,97845.47
2022-08-21T06:21:18.061Z,97848.94
2022-08-21T06:26:21.096Z,97852.16
2022-08-21T06:31:24.780Z,97851.88
2022-08-21T06:36:26.864Z,97852.94
2022-08-21T06:41:28.542Z,97851.09
2022-08-21T06:46:31.249Z,97852.38
2022-08-21T06:51:32.839Z,97853.19
2022-08-21T06:56:36.206Z,97851.66
2022-08-21T07:01:37.844Z,97851.06
2022-08-21T07:06:39.498Z,97859.47
2022-08-21T07:11:45.369Z,97858.69
2022-08-21T07:16:50.073Z,97859.84
2022-08-21T07:21:59.422Z,97867.44
2022-08-21T07:27:01.044Z,97862.03
2022-08-21T07:32:02.832Z,97859.78
2022-08-21T07:37:09.935Z,97863.41
2022-08-21T07:42:11.873Z,97867.22
2022-08-21T07:47:13.522Z,97862.69
2022-08-21T07:52:15.159Z,97867.53
2022-08-21T07:57:16.885Z,97864.72
2022-08-21T08:02:28.417Z,97864.91
2022-08-21T08:07:30.324Z,97874.19
2022-08-21T08:12:31.984Z,97876.22
2022-08-21T08:17:33.657Z,97866.34
2022-08-21T08:22:37.243Z,97873.28
2022-08-21T08:27:39.941Z,97876.53
2022-08-21T08:32:42.365Z,97873.59
2022-08-21T08:37:52.284Z,97865.53
2022-08-21T08:42:54.556Z,97873.28
2022-08-21T08:48:03.968Z,97876.16
2022-08-21T08:53:09.618Z,97878.56
2022-08-21T08:58:21.410Z,97880.97
2022-08-21T09:03:27.688Z,97881.44
2022-08-21T09:08:30.364Z,97876.63
2022-08-21T09:14:07.545Z,97883.63
2022-08-21T09:19:31.248Z,97875.44
2022-08-21T09:24:50.005Z,97876.31
2022-08-21T09:29:55.307Z,97873.19
2022-08-21T09:35:04.584Z,97874.81
2022-08-21T09:40:21.889Z,97873.44
2022-08-21T09:45:23.560Z,97870.31
2022-08-21T09:50:28.543Z,97865.19
2022-08-21T09:55:53.570Z,97868.63
2022-08-21T10:01:01.167Z,97862.00
2022-08-21T10:06:09.698Z,97859.47
2022-08-21T10:11:15.526Z,97854.91
2022-08-21T10:16:48.190Z,97851.75
2022-08-21T10:22:07.641Z,97847.72
2022-08-21T10:27:40.050Z,97851.03
2022-08-21T10:33:49.676Z,97847.94
2022-08-21T10:39:36.175Z,97861.25
2022-08-21T10:45:00.243Z,97856.41
2022-08-21T10:50:28.026Z,97847.69
2022-08-21T10:55:55.467Z,97854.03
2022-08-21T11:01:10.184Z,97850.97
2022-08-21T11:06:32.928Z,97848.16
2022-08-21T11:11:50.120Z,97843.69
2022-08-21T11:17:16.428Z,97847.56
2022-08-21T11:22:27.524Z,97850.47
2022-08-21T11:27:35.248Z,97841.28
2022-08-21T11:32:42.891Z,97831.03
2022-08-21T11:38:35.743Z,97839.63
2022-08-21T11:43:47.124Z,97841.47
2022-08-21T11:49:06.773Z,97832.81
2022-08-21T11:54:30.693Z,97822.69
2022-08-21T11:59:46.427Z,97821.50
2022-08-21T12:04:58.580Z,97813.88
2022-08-21T12:10:06.110Z,97822.44
2022-08-21T12:15:23.100Z,97830.72
2022-08-21T12:20:28.246Z,97826.25
2022-08-21T12:25:39.107Z,97825.84
2022-08-21T12:30:46.306Z,97816.13
2022-08-21T12:35:50.565Z,97819.84
2022-08-21T12:40:57.863Z,97811.47
2022-08-21T12:46:05.349Z,97811.09
2022-08-21T12:51:17.978Z,97807.25
2022-08-21T12:56:24.644Z,97802.63
2022-08-21T13:01:38.180Z,97796.97
2022-08-21T13:06:46.124Z,97804.09
2022-08-21T13:11:49.971Z,97796.91
2022-08-21T13:16:59.823Z,97798.94
2022-08-21T13:22:02.475Z,97801.69
2022-08-21T13:27:27.444Z,97798.91
2022-08-21T13:32:31.334Z,97799.94
2022-08-21T13:37:33.020Z,97811.91
2022-08-21T13:42:34.807Z,97795.53
2022-08-21T13:47:36.657Z,97789.63
2022-08-21T13:52:49.280Z,97799.53
2022-08-21T13:58:01.648Z,97804.88
2022-08-21T14:03:09.012Z,97801.13
2022-08-21T14:08:21.381Z,97795.44
2022-08-21T14:13:44.368Z,97804.47
2022-08-21T14:18:53.636Z,97786.94
2022-08-21T14:24:35.781Z,97776.91
2022-08-21T14:29:42.104Z,97775.19
2022-08-21T14:34:45.703Z,97785.22
2022-08-21T14:39:48.539Z,97778.22
2022-08-21T14:44:50.359Z,97777.41
2022-08-21T14:49:54.804Z,97773.59
2022-08-21T14:54:56.456Z,97763.53
2022-08-21T15:00:01.762Z,97764.28
2022-08-21T15:05:04.795Z,97751.97
2022-08-21T15:10:07.535Z,97741.91
2022-08-21T15:15:11.692Z,97751.03
2022-08-21T15:20:15.836Z,97747.78
2022-08-21T15:25:17.485Z,97746.50
2022-08-21T15:30:19.370Z,97743.38
2022-08-21T15:35:21.130Z,97741.94
2022-08-21T15:40:23.416Z,97740.00
2022-08-21T15:45:25.448Z,97737.28
2022-08-21T15:50:29.051Z,97735.47
2022-08-21T15:55:31.313Z,97735.06
2022-08-21T16:00:36.378Z,97733.50
2022-08-21T16:05:38.094Z,97731.03
2022-08-21T16:10:40.976Z,97733.28
2022-08-21T16:15:42.639Z,97739.41
2022-08-21T16:20:44.715Z,97730.09
2022-08-21T16:25:47.345Z,97728.72
2022-08-21T16:30:51.329Z,97724.03
2022-08-21T16:35:53.227Z,97723.47
2022-08-21T16:40:55.481Z,97718.91
2022-08-21T16:45:58.456Z,97717.31
2022-08-21T16:51:00.169Z,97708.41
2022-08-21T16:56:02.185Z,97706.97
2022-08-21T17:01:07.602Z,97704.28
2022-08-21T17:06:10.278Z,97705.94
2022-08-21T17:11:36.514Z,97708.00
2022-08-21T17:16:42.571Z,97708.66
2022-08-21T17:21:44.457Z,97716.75
2022-08-21T17:26:46.278Z,97712.63
2022-08-21T17:31:47.941Z,97714.94
2022-08-21T17:36:49.624Z,97722.34
2022-08-21T17:41:56.357Z,97716.88
2022-08-21T17:46:59.864Z,97714.78
2022-08-21T17:52:01.620Z,97717.88
2022-08-21T17:57:04.699Z,97719.31
2022-08-21T18:02:10.432Z,97726.94
2022-08-21T18:07:31.888Z,97728.91
2022-08-21T18:12:35.236Z,97735.66
2022-08-21T18:17:37.244Z,97748.84
2022-08-21T18:22:38.903Z,97744.66
2022-08-21T18:27:44.133Z,97752.06
2022-08-21T18:32:46.515Z,97753.00
2022-08-21T18:37:48.165Z,97756.69
2022-08-21T18:42:55.872Z,97766.72
2022-08-21T18:47:58.771Z,97768.91
2022-08-21T18:53:00.402Z,97768.53
2022-08-21T18:58:02.655Z,97773.25
2022-08-21T19:03:06.005Z,97770.59
2022-08-21T19:08:13.119Z,97770.78
2022-08-21T19:13:18.488Z,97773.28
2022-08-21T19:23:52.720Z,97774.88
2022-08-21T19:34:26.331Z,97786.34
2022-08-21T19:39:28.157Z,97787.22
2022-08-21T19:44:31.027Z,97781.63
2022-08-21T19:49:34.703Z,97776.44
2022-08-21T19:54:36.534Z,97785.34
2022-08-21T19:59:40.651Z,97790.97
2022-08-21T20:04:53.601Z,97787.75
2022-08-21T20:09:56.911Z,97778.69
2022-08-21T20:14:59.351Z,97781.50
2022-08-21T20:20:00.988Z,97780.28
2022-08-21T20:25:03.809Z,97779.09
2022-08-21T20:30:07.460Z,97775.06
2022-08-21T20:35:12.344Z,97774.81
2022-08-21T20:40:16.541Z,97779.25
2022-08-21T20:45:27.228Z,97775.56
2022-08-21T20:50:31.847Z,97774.56
2022-08-21T20:55:37.374Z,97773.91
2022-08-21T21:00:41.834Z,97775.53
2022-08-21T21:05:50.247Z,97772.63
2022-08-21T21:10:57.297Z,97776.00
2022-08-21T21:16:17.998Z,97769.31
2022-08-21T21:21:32.968Z,97768.44
2022-08-21T21:26:50.342Z,97765.75
2022-08-21T21:31:53.814Z,97766.72
2022-08-21T21:37:13.587Z,97773.91
2022-08-21T21:42:30.368Z,97773.91
2022-08-21T21:48:14.129Z,97770.25
2022-08-21T21:53:51.501Z,97770.00
2022-08-21T21:59:17.699Z,97771.75
2022-08-21T22:04:32.227Z,97762.66
2022-08-21T22:09:39.312Z,97768.00
2022-08-21T22:14:42.289Z,97771.56
2022-08-21T22:19:46.243Z,97770.06
2022-08-21T22:24:54.211Z,97768.28
2022-08-21T22:30:01.305Z,97772.63
2022-08-21T22:35:18.386Z,97776.56
2022-08-21T22:40:26.176Z,97768.50
2022-08-21T22:45:28.977Z,97773.47
2022-08-21T22:50:33.447Z,97776.41
2022-08-21T22:55:43.769Z,97775.31
2022-08-21T23:00:56.903Z,97781.09
2022-08-21T23:06:03.164Z,97781.00
2022-08-21T23:11:20.881Z,97773.19
2022-08-21T23:16:52.921Z,97776.34
2022-08-21T23:22:09.677Z,97768.66
2022-08-21T23:27:27.153Z,97778.81
2022-08-21T23:33:12.025Z,97771.28
2022-08-21T23:38:45.484Z,97770.22
2022-08-21T23:43:59.609Z,97768.53
2022-08-21T23:49:29.176Z,97776.25
2022-08-21T23:54:51.255Z,97777.19
2022-08-21T23:59:53.343Z,97777.06
